createdAt,value
2023-08-12T00:00:12.540Z,61.90
2023-08-12T00:02:46.597Z,63.30
2023-08-12T00:05:18.014Z,63.20
2023-08-12T00:07:46.378Z,61.70
2023-08-12T00:10:16.600Z,61.70
2023-08-12T00:12:45.487Z,61.90
2023-08-12T00:15:14.012Z,62.00
2023-08-12T00:17:43.165Z,62.50
2023-08-12T00:20:14.581Z,62.20
2023-08-12T00:22:43.120Z,62.30
2023-08-12T00:25:11.790Z,62.30
2023-08-12T00:27:40.187Z,62.90
2023-08-12T00:30:09.768Z,63.10
2023-08-12T00:32:38.244Z,63.00
2023-08-12T00:35:09.711Z,62.90
2023-08-12T00:37:39.486Z,62.80
2023-08-12T00:40:09.164Z,63.00
2023-08-12T00:42:37.590Z,63.60
2023-08-12T00:45:11.267Z,63.90
2023-08-12T00:47:40.257Z,64.00
2023-08-12T00:50:11.045Z,64.70
2023-08-12T00:52:41.566Z,64.90
2023-08-12T00:55:10.444Z,64.80
2023-08-12T00:57:41.774Z,65.00
2023-08-12T01:00:11.072Z,64.60
2023-08-12T01:02:39.553Z,63.80
2023-08-12T01:05:08.636Z,63.70
2023-08-12T01:07:37.503Z,63.70
2023-08-12T01:10:09.112Z,63.60
2023-08-12T01:12:43.670Z,64.20
2023-08-12T01:15:21.873Z,63.80
2023-08-12T01:17:53.454Z,63.80
2023-08-12T01:20:26.019Z,64.20
2023-08-12T01:22:59.266Z,64.60
2023-08-12T01:25:29.154Z,66.30
2023-08-12T01:27:57.702Z,65.60
2023-08-12T01:30:26.237Z,65.60
2023-08-12T01:32:59.456Z,65.80
2023-08-12T01:35:35.290Z,65.90
2023-08-12T01:38:06.149Z,66.10
2023-08-12T01:40:37.283Z,65.90
2023-08-12T01:43:07.146Z,66.00
2023-08-12T01:45:35.720Z,66.40
2023-08-12T01:48:04.402Z,66.30
2023-08-12T01:50:32.845Z,66.00
2023-08-12T01:53:01.237Z,65.80
2023-08-12T01:55:32.031Z,65.40
2023-08-12T01:58:01.776Z,65.60
2023-08-12T02:00:30.202Z,65.50
2023-08-12T02:02:58.861Z,65.50
2023-08-12T02:05:27.746Z,65.50
2023-08-12T02:07:56.181Z,65.30
2023-08-12T02:10:24.620Z,65.20
2023-08-12T02:12:55.466Z,65.20
2023-08-12T02:15:25.686Z,64.80
2023-08-12T02:17:54.099Z,65.00
2023-08-12T02:20:22.577Z,64.80
2023-08-12T02:22:50.962Z,64.10
2023-08-12T02:25:19.464Z,64.40
2023-08-12T02:27:47.883Z,64.20
2023-08-12T02:30:16.306Z,64.40
2023-08-12T02:32:47.564Z,64.30
2023-08-12T02:35:16.008Z,64.50
2023-08-12T02:37:44.476Z,64.90
2023-08-12T02:40:13.466Z,64.90
2023-08-12T02:42:41.830Z,64.60
2023-08-12T02:45:10.764Z,65.30
2023-08-12T02:47:39.214Z,65.20
2023-08-12T02:50:10.648Z,66.30
2023-08-12T02:52:39.130Z,66.40
2023-08-12T02:55:07.931Z,67.50
2023-08-12T02:57:36.378Z,67.50
2023-08-12T03:00:06.500Z,67.60
2023-08-12T03:02:35.100Z,67.20
2023-08-12T03:05:04.217Z,68.30
2023-08-12T03:07:33.929Z,67.80
2023-08-12T03:10:02.836Z,67.90
2023-08-12T03:12:31.420Z,67.50
2023-08-12T03:14:59.959Z,67.00
2023-08-12T03:17:29.561Z,67.10
2023-08-12T03:20:00.286Z,66.50
2023-08-12T03:22:31.141Z,65.70
2023-08-12T03:25:01.715Z,66.60
2023-08-12T03:27:30.127Z,65.70
2023-08-12T03:29:58.733Z,65.60
2023-08-12T03:32:28.059Z,65.60
2023-08-12T03:34:57.400Z,65.20
2023-08-12T03:37:27.394Z,65.20
2023-08-12T03:39:56.375Z,64.80
2023-08-12T03:42:26.227Z,65.10
2023-08-12T03:44:54.980Z,65.20
2023-08-12T03:47:25.614Z,64.90
2023-08-12T03:49:55.612Z,64.80
2023-08-12T03:52:24.795Z,64.70
2023-08-12T03:54:54.049Z,65.10
2023-08-12T03:57:24.926Z,65.80
2023-08-12T03:59:53.831Z,65.50
2023-08-12T04:02:22.166Z,65.50
2023-08-12T04:04:52.436Z,65.70
2023-08-12T04:07:21.213Z,65.90
2023-08-12T04:09:49.539Z,65.70
2023-08-12T04:12:17.897Z,65.70
2023-08-12T04:14:47.625Z,65.80
2023-08-12T04:17:15.976Z,65.80
2023-08-12T04:19:44.893Z,66.10
2023-08-12T04:22:13.220Z,66.20
2023-08-12T04:24:41.702Z,66.10
2023-08-12T04:27:10.641Z,65.20
2023-08-12T04:29:39.185Z,65.20
2023-08-12T04:32:09.291Z,65.00
2023-08-12T04:34:37.926Z,64.70
2023-08-12T04:37:06.585Z,64.30
2023-08-12T04:39:34.979Z,64.20
2023-08-12T04:42:04.345Z,64.00
2023-08-12T04:44:33.111Z,64.20
2023-08-12T04:47:02.762Z,64.10
2023-08-12T04:49:33.876Z,63.80
2023-08-12T04:52:02.257Z,63.80
2023-08-12T04:54:31.007Z,63.70
2023-08-12T04:57:00.311Z,63.90
2023-08-12T04:59:28.750Z,63.60
2023-08-12T05:02:04.724Z,63.40
2023-08-12T05:04:35.989Z,63.20
2023-08-12T05:07:04.372Z,63.10
2023-08-12T05:09:33.075Z,63.70
2023-08-12T05:12:01.551Z,63.20
2023-08-12T05:14:30.476Z,63.40
2023-08-12T05:16:58.859Z,62.80
2023-08-12T05:19:27.217Z,61.60
2023-08-12T05:21:59.765Z,60.70
2023-08-12T05:24:32.110Z,61.40
2023-08-12T05:27:00.494Z,61.40
2023-08-12T05:29:28.851Z,60.40
2023-08-12T05:31:57.327Z,60.60
2023-08-12T05:34:25.750Z,60.80
2023-08-12T05:36:54.610Z,60.50
2023-08-12T05:39:24.302Z,59.80
2023-08-12T05:41:53.401Z,57.70
2023-08-12T05:44:21.869Z,57.50
2023-08-12T05:46:53.279Z,59.40
2023-08-12T05:49:21.619Z,60.70
2023-08-12T05:51:52.886Z,60.20
2023-08-12T05:54:21.197Z,60.00
2023-08-12T05:56:51.169Z,59.80
2023-08-12T05:59:19.654Z,59.70
2023-08-12T06:01:48.043Z,59.20
2023-08-12T06:04:16.369Z,60.30
2023-08-12T06:06:44.803Z,59.50
2023-08-12T06:09:13.216Z,59.30
2023-08-12T06:11:42.776Z,60.30
2023-08-12T06:14:14.856Z,60.50
2023-08-12T06:16:43.217Z,61.00
2023-08-12T06:19:12.326Z,61.40
2023-08-12T06:21:40.872Z,63.70
2023-08-12T06:24:14.827Z,62.90
2023-08-12T06:26:43.376Z,60.90
2023-08-12T06:29:15.909Z,62.50
2023-08-12T06:31:44.353Z,63.00
2023-08-12T06:34:12.704Z,62.40
2023-08-12T06:36:41.097Z,63.20
2023-08-12T06:39:09.440Z,63.30
2023-08-12T06:41:37.881Z,63.00
2023-08-12T06:44:09.624Z,62.70
2023-08-12T06:46:39.367Z,62.40
2023-08-12T06:49:10.014Z,61.60
2023-08-12T06:51:38.341Z,62.30
2023-08-12T06:54:07.148Z,64.30
2023-08-12T06:56:35.463Z,63.50
2023-08-12T06:59:03.847Z,63.80
2023-08-12T07:01:32.454Z,62.40
2023-08-12T07:04:02.264Z,61.50
2023-08-12T07:06:30.763Z,62.70
2023-08-12T07:08:59.092Z,59.80
2023-08-12T07:11:27.526Z,61.10
2023-08-12T07:13:58.522Z,60.60
2023-08-12T07:16:26.898Z,59.20
2023-08-12T07:18:57.749Z,59.50
2023-08-12T07:21:27.647Z,61.00
2023-08-12T07:26:33.732Z,58.20
2023-08-12T07:29:02.402Z,58.00
2023-08-12T07:31:36.241Z,57.10
2023-08-12T07:34:04.651Z,55.00
2023-08-12T07:36:35.024Z,57.00
2023-08-12T07:39:03.531Z,54.80
2023-08-12T07:41:31.821Z,55.10
2023-08-12T07:44:00.128Z,56.30
2023-08-12T07:46:29.795Z,59.70
2023-08-12T07:48:58.224Z,58.20
2023-08-12T07:51:26.623Z,57.10
2023-08-12T07:53:56.297Z,55.80
2023-08-12T07:56:24.729Z,56.00
2023-08-12T07:58:53.001Z,49.90
2023-08-12T08:01:21.312Z,53.70
2023-08-12T08:03:49.632Z,52.20
2023-08-12T08:06:17.961Z,51.00
2023-08-12T08:08:52.513Z,51.80
2023-08-12T08:11:22.220Z,52.70
2023-08-12T08:13:50.586Z,51.90
2023-08-12T08:16:19.098Z,52.10
2023-08-12T08:18:47.550Z,51.50
2023-08-12T08:21:18.805Z,52.60
2023-08-12T08:23:48.036Z,52.10
2023-08-12T08:26:17.101Z,51.30
2023-08-12T08:28:46.843Z,52.20
2023-08-12T08:31:15.157Z,53.20
2023-08-12T08:33:45.269Z,51.70
2023-08-12T08:36:13.973Z,54.10
2023-08-12T08:38:42.300Z,52.10
2023-08-12T08:41:13.822Z,52.50
2023-08-12T08:43:45.920Z,50.60
2023-08-12T08:46:17.873Z,51.10
2023-08-12T08:48:46.886Z,50.90
2023-08-12T08:51:15.660Z,50.40
2023-08-12T08:53:45.679Z,49.20
2023-08-12T08:56:16.150Z,48.80
2023-08-12T08:58:44.774Z,48.80
2023-08-12T09:01:14.447Z,49.80
2023-08-12T09:03:45.697Z,48.80
2023-08-12T09:06:14.179Z,49.60
2023-08-12T09:08:45.955Z,48.30
2023-08-12T09:11:15.642Z,48.00
2023-08-12T09:13:44.006Z,48.90
2023-08-12T09:16:12.357Z,48.50
2023-08-12T09:18:42.334Z,47.70
2023-08-12T09:21:12.603Z,48.50
2023-08-12T09:23:41.825Z,47.00
2023-08-12T09:26:17.540Z,48.00
2023-08-12T09:28:46.689Z,49.60
2023-08-12T09:31:25.569Z,48.80
2023-08-12T09:33:55.230Z,47.60
2023-08-12T09:36:25.005Z,47.70
2023-08-12T09:38:54.388Z,46.50
2023-08-12T09:41:25.006Z,47.90
2023-08-12T09:43:54.185Z,49.00
2023-08-12T09:46:25.260Z,49.90
2023-08-12T09:48:54.296Z,46.90
2023-08-12T09:51:24.366Z,47.10
2023-08-12T09:53:55.667Z,47.90
2023-08-12T09:56:25.921Z,46.10
2023-08-12T09:58:56.019Z,47.70
2023-08-12T10:01:25.136Z,46.70
2023-08-12T10:03:55.621Z,45.40
2023-08-12T10:06:26.408Z,46.90
2023-08-12T10:08:55.526Z,47.50
2023-08-12T10:11:24.107Z,47.40
2023-08-12T10:13:52.766Z,48.10
2023-08-12T10:16:22.149Z,47.80
2023-08-12T10:18:52.562Z,46.60
2023-08-12T10:21:21.126Z,45.30
2023-08-12T10:23:52.239Z,47.20
2023-08-12T10:26:21.358Z,47.50
2023-08-12T10:28:52.960Z,47.30
2023-08-12T10:31:22.259Z,45.90
2023-08-12T10:33:51.075Z,45.00
2023-08-12T10:36:20.309Z,45.70
2023-08-12T10:38:50.365Z,48.30
2023-08-12T10:41:20.046Z,48.50
2023-08-12T10:43:56.116Z,48.60
2023-08-12T10:46:26.014Z,47.80
2023-08-12T10:49:10.306Z,47.50
2023-08-12T10:51:47.671Z,46.40
2023-08-12T10:54:18.875Z,46.10
2023-08-12T10:57:06.338Z,47.10
2023-08-12T10:59:56.327Z,46.40
2023-08-12T11:02:30.522Z,46.80
2023-08-12T11:05:00.282Z,45.20
2023-08-12T11:07:36.598Z,44.90
2023-08-12T11:10:15.144Z,46.70
2023-08-12T11:12:47.910Z,44.70
2023-08-12T11:15:16.253Z,44.50
2023-08-12T11:17:45.268Z,47.00
2023-08-12T11:20:14.874Z,45.10
2023-08-12T11:22:46.138Z,44.50
2023-08-12T11:25:17.625Z,46.20
2023-08-12T11:27:50.937Z,44.50
2023-08-12T11:30:21.539Z,45.80
2023-08-12T11:32:51.122Z,44.80
2023-08-12T11:35:20.785Z,42.90
2023-08-12T11:37:50.387Z,43.90
2023-08-12T11:40:20.220Z,44.40
2023-08-12T11:42:50.660Z,45.00
2023-08-12T11:45:21.193Z,44.10
2023-08-12T11:47:55.522Z,45.80
2023-08-12T11:50:26.241Z,44.00
2023-08-12T11:52:55.471Z,44.40
2023-08-12T11:55:26.032Z,48.50
2023-08-12T11:57:54.925Z,44.60
2023-08-12T12:00:25.924Z,45.10
2023-08-12T12:02:55.642Z,44.10
2023-08-12T12:05:27.647Z,45.30
2023-08-12T12:07:56.570Z,45.60
2023-08-12T12:10:34.021Z,44.60
2023-08-12T12:13:05.868Z,44.50
2023-08-12T12:15:40.015Z,45.10
2023-08-12T12:18:12.032Z,43.10
2023-08-12T12:20:56.147Z,44.20
2023-08-12T12:23:24.608Z,43.50
2023-08-12T12:26:01.603Z,44.20
2023-08-12T12:28:35.122Z,44.50
2023-08-12T12:31:03.505Z,46.30
2023-08-12T12:33:31.917Z,44.50
2023-08-12T12:36:01.878Z,45.10
2023-08-12T12:38:32.653Z,45.00
2023-08-12T12:41:02.350Z,44.70
2023-08-12T12:43:30.740Z,45.80
2023-08-12T12:45:59.136Z,44.40
2023-08-12T12:48:27.443Z,45.20
2023-08-12T12:50:55.774Z,49.30
2023-08-12T12:53:24.446Z,47.90
2023-08-12T12:55:52.870Z,45.90
2023-08-12T12:58:24.359Z,45.60
2023-08-12T13:00:52.738Z,46.00
2023-08-12T13:03:21.197Z,44.60
2023-08-12T13:05:49.700Z,43.30
2023-08-12T13:08:18.033Z,44.40
2023-08-12T13:10:46.505Z,44.50
2023-08-12T13:13:16.952Z,45.10
2023-08-12T13:15:47.600Z,43.30
2023-08-12T13:18:16.019Z,46.30
2023-08-12T13:20:44.386Z,44.10
2023-08-12T13:23:13.163Z,45.60
2023-08-12T13:25:41.816Z,45.00
2023-08-12T13:28:10.300Z,45.90
2023-08-12T13:30:38.671Z,45.10
2023-08-12T13:33:08.862Z,44.20
2023-08-12T13:35:37.401Z,43.50
2023-08-12T13:38:06.192Z,44.00
2023-08-12T13:40:34.545Z,45.00
2023-08-12T13:43:02.821Z,45.20
2023-08-12T13:45:31.275Z,44.90
2023-08-12T13:47:59.636Z,44.60
2023-08-12T13:50:29.812Z,45.60
2023-08-12T13:52:58.110Z,43.20
2023-08-12T13:55:27.296Z,44.50
2023-08-12T13:57:55.730Z,43.80
2023-08-12T14:00:25.379Z,43.60
2023-08-12T14:02:55.880Z,44.90
2023-08-12T14:05:24.217Z,44.00
2023-08-12T14:07:53.882Z,44.10
2023-08-12T14:10:22.204Z,44.30
2023-08-12T14:12:53.334Z,44.70
2023-08-12T14:15:21.732Z,45.50
2023-08-12T14:17:50.115Z,44.90
2023-08-12T14:20:19.084Z,42.80
2023-08-12T14:22:47.393Z,42.60
2023-08-12T14:25:17.232Z,44.10
2023-08-12T14:27:45.583Z,45.90
2023-08-12T14:30:16.171Z,44.40
2023-08-12T14:32:44.539Z,43.90
2023-08-12T14:35:13.070Z,43.70
2023-08-12T14:37:41.394Z,44.60
2023-08-12T14:40:10.688Z,44.20
2023-08-12T14:42:40.441Z,43.80
2023-08-12T14:45:10.130Z,43.90
2023-08-12T14:47:38.554Z,45.60
2023-08-12T14:50:07.758Z,43.50
2023-08-12T14:52:36.196Z,44.00
2023-08-12T14:55:04.865Z,44.20
2023-08-12T14:57:33.402Z,43.80
2023-08-12T15:00:03.098Z,45.80
2023-08-12T15:02:33.343Z,43.70
2023-08-12T15:05:02.463Z,43.70
2023-08-12T15:07:32.722Z,44.30
2023-08-12T15:10:01.374Z,42.40
2023-08-12T15:12:30.022Z,44.80
2023-08-12T15:14:58.366Z,43.50
2023-08-12T15:17:28.188Z,43.10
2023-08-12T15:19:59.892Z,44.00
2023-08-12T15:22:30.088Z,45.50
2023-08-12T15:24:58.413Z,42.70
2023-08-12T15:27:26.747Z,44.70
2023-08-12T15:29:57.456Z,43.10
2023-08-12T15:32:27.168Z,45.60
2023-08-12T15:34:55.552Z,46.10
2023-08-12T15:37:23.885Z,43.70
2023-08-12T15:39:52.319Z,44.10
2023-08-12T15:42:20.707Z,43.30
2023-08-12T15:44:49.016Z,44.30
2023-08-12T15:47:17.344Z,44.40
2023-08-12T15:49:46.985Z,43.70
2023-08-12T15:52:15.321Z,42.80
2023-08-12T15:54:43.745Z,44.90
2023-08-12T15:57:12.350Z,43.70
2023-08-12T15:59:41.239Z,44.80
2023-08-12T16:02:10.669Z,44.80
2023-08-12T16:04:39.159Z,45.50
2023-08-12T16:07:10.289Z,45.60
2023-08-12T16:09:38.691Z,45.30
2023-08-12T16:12:07.465Z,43.50
2023-08-12T16:14:36.119Z,44.10
2023-08-12T16:17:09.309Z,45.20
2023-08-12T16:19:37.688Z,44.60
2023-08-12T16:22:06.070Z,46.90
2023-08-12T16:24:35.790Z,48.00
2023-08-12T16:27:06.190Z,47.30
2023-08-12T16:29:36.098Z,48.10
2023-08-12T16:32:04.547Z,48.10
2023-08-12T16:34:33.483Z,48.40
2023-08-12T16:37:19.773Z,48.80
2023-08-12T16:39:52.999Z,49.40
2023-08-12T16:42:22.981Z,51.50
2023-08-12T16:44:51.881Z,50.70
2023-08-12T16:47:20.205Z,51.30
2023-08-12T16:49:51.230Z,51.30
2023-08-12T16:52:19.678Z,51.00
2023-08-12T16:54:47.957Z,51.50
2023-08-12T16:57:17.952Z,52.40
2023-08-12T16:59:46.274Z,53.20
2023-08-12T17:02:14.813Z,53.00
2023-08-12T17:04:43.339Z,52.80
2023-08-12T17:07:11.651Z,53.90
2023-08-12T17:09:39.979Z,54.10
2023-08-12T17:12:12.085Z,54.30
2023-08-12T17:14:41.974Z,54.40
2023-08-12T17:17:10.383Z,54.50
2023-08-12T17:19:40.081Z,55.20
2023-08-12T17:22:08.442Z,55.80
2023-08-12T17:24:37.414Z,55.50
2023-08-12T17:27:05.775Z,56.30
2023-08-12T17:29:34.152Z,56.10
2023-08-12T17:32:04.250Z,56.90
2023-08-12T17:34:32.562Z,57.30
2023-08-12T17:37:00.899Z,57.90
2023-08-12T17:39:30.214Z,58.00
2023-08-12T17:41:58.520Z,57.40
2023-08-12T17:44:26.790Z,57.70
2023-08-12T17:46:55.059Z,58.60
2023-08-12T17:49:24.809Z,58.20
2023-08-12T17:51:53.137Z,58.80
2023-08-12T17:54:21.637Z,59.00
2023-08-12T17:56:58.197Z,59.30
2023-08-12T17:59:26.477Z,59.50
2023-08-12T18:01:54.739Z,60.00
2023-08-12T18:04:24.404Z,60.70
2023-08-12T18:06:53.155Z,60.80
2023-08-12T18:09:21.743Z,60.70
2023-08-12T18:11:50.189Z,61.20
2023-08-12T18:14:22.259Z,61.50
2023-08-12T18:16:50.736Z,61.50
2023-08-12T18:19:19.083Z,61.60
2023-08-12T18:21:48.899Z,61.90
2023-08-12T18:24:19.565Z,62.00
2023-08-12T18:26:48.045Z,61.60
2023-08-12T18:29:16.337Z,61.30
2023-08-12T18:31:44.719Z,61.70
2023-08-12T18:34:12.998Z,61.70
2023-08-12T18:36:41.314Z,62.20
2023-08-12T18:39:11.051Z,62.00
2023-08-12T18:41:39.311Z,61.70
2023-08-12T18:44:07.845Z,61.60
2023-08-12T18:46:38.950Z,61.90
2023-08-12T18:49:07.303Z,62.00
2023-08-12T18:51:36.153Z,62.00
2023-08-12T18:54:08.103Z,61.70
2023-08-12T18:56:38.023Z,61.70
2023-08-12T18:59:06.705Z,61.70
2023-08-12T19:01:35.156Z,61.50
2023-08-12T19:04:03.563Z,61.40
2023-08-12T19:06:31.974Z,61.60
2023-08-12T19:09:00.538Z,60.90
2023-08-12T19:11:30.793Z,61.20
2023-08-12T19:14:00.514Z,61.30
2023-08-12T19:16:30.039Z,61.40
2023-08-12T19:18:58.389Z,61.50
2023-08-12T19:21:26.808Z,62.70
2023-08-12T19:23:55.111Z,61.90
2023-08-12T19:26:23.519Z,62.00
2023-08-12T19:28:52.151Z,62.30
2023-08-12T19:31:21.865Z,62.10
2023-08-12T19:33:52.311Z,61.50
2023-08-12T19:36:20.704Z,61.70
2023-08-12T19:38:49.004Z,60.90
2023-08-12T19:41:17.286Z,60.30
2023-08-12T19:43:45.565Z,60.10
2023-08-12T19:46:13.937Z,60.20
2023-08-12T19:48:56.900Z,60.40
2023-08-12T19:51:25.298Z,60.90
2023-08-12T19:53:53.620Z,61.30
2023-08-12T19:56:21.965Z,61.10
2023-08-12T19:58:50.245Z,62.20
2023-08-12T20:01:18.560Z,63.00
2023-08-12T20:03:46.984Z,63.10
2023-08-12T20:06:16.669Z,63.40
2023-08-12T20:08:44.995Z,63.50
2023-08-12T20:11:13.366Z,63.50
2023-08-12T20:13:41.691Z,63.00
2023-08-12T20:16:09.964Z,63.30
2023-08-12T20:18:38.530Z,63.20
2023-08-12T20:21:06.840Z,62.70
2023-08-12T20:23:36.552Z,62.90
2023-08-12T20:26:06.172Z,63.10
2023-08-12T20:28:34.552Z,62.80
2023-08-12T20:31:03.000Z,62.80
2023-08-12T20:33:31.360Z,63.00
2023-08-12T20:35:59.746Z,64.10
2023-08-12T20:38:28.033Z,65.00
2023-08-12T20:40:57.698Z,64.60
2023-08-12T20:43:26.462Z,64.80
2023-08-12T20:45:55.000Z,65.20
2023-08-12T20:48:23.311Z,66.00
2023-08-12T20:50:51.599Z,66.00
2023-08-12T20:53:19.940Z,66.10
2023-08-12T20:55:48.264Z,66.70
2023-08-12T20:58:17.914Z,66.70
2023-08-12T21:00:47.480Z,67.00
2023-08-12T21:03:18.489Z,67.30
2023-08-12T21:05:51.266Z,67.70
2023-08-12T21:08:19.537Z,68.20
2023-08-12T21:10:53.487Z,68.00
2023-08-12T21:13:23.642Z,68.40
2023-08-12T21:15:52.010Z,68.70
2023-08-12T21:18:20.347Z,68.30
2023-08-12T21:20:50.696Z,68.60
2023-08-12T21:23:19.001Z,68.50
2023-08-12T21:25:48.045Z,68.20
2023-08-12T21:28:16.373Z,67.90
2023-08-12T21:30:46.067Z,68.00
2023-08-12T21:33:14.476Z,68.30
2023-08-12T21:35:42.804Z,68.40
2023-08-12T21:38:11.159Z,68.40
2023-08-12T21:40:39.493Z,68.70
2023-08-12T21:43:10.069Z,68.70
2023-08-12T21:45:38.395Z,69.00
2023-08-12T21:48:10.049Z,69.70
2023-08-12T21:50:38.608Z,69.20
2023-08-12T21:53:06.957Z,68.90
2023-08-12T21:55:35.323Z,69.00
2023-08-12T21:58:03.682Z,67.70
2023-08-12T22:00:32.042Z,66.60
2023-08-12T22:03:01.535Z,67.40
2023-08-12T22:05:31.843Z,66.90
2023-08-12T22:08:00.691Z,66.60
2023-08-12T22:10:29.069Z,66.30
2023-08-12T22:12:57.383Z,65.40
2023-08-12T22:15:25.745Z,65.10
2023-08-12T22:17:54.074Z,65.70
2023-08-12T22:20:23.356Z,66.00
2023-08-12T22:22:53.031Z,66.20
2023-08-12T22:25:21.563Z,67.20
2023-08-12T22:27:50.177Z,67.60
2023-08-12T22:30:18.721Z,67.70
2023-08-12T22:32:47.148Z,67.10
2023-08-12T22:35:15.706Z,66.90
2023-08-12T22:37:44.006Z,66.90
2023-08-12T22:40:13.810Z,67.70
2023-08-12T22:42:44.762Z,68.50
2023-08-12T22:45:13.095Z,69.00
2023-08-12T22:47:41.537Z,68.80
2023-08-12T22:50:13.120Z,69.20
2023-08-12T22:52:42.684Z,69.00
2023-08-12T22:55:14.785Z,68.70
2023-08-12T22:57:43.121Z,68.70
2023-08-12T23:00:12.257Z,67.50
2023-08-12T23:02:40.874Z,68.00
2023-08-12T23:05:09.556Z,68.20
2023-08-12T23:07:37.894Z,68.50
2023-08-12T23:10:07.048Z,68.40
2023-08-12T23:12:38.486Z,68.60
2023-08-12T23:15:08.149Z,68.80
2023-08-12T23:17:36.586Z,68.70
2023-08-12T23:20:09.386Z,68.60
2023-08-12T23:22:37.747Z,68.30
2023-08-12T23:25:07.087Z,68.40
2023-08-12T23:27:36.857Z,68.50
2023-08-12T23:30:05.946Z,68.40
2023-08-12T23:32:36.498Z,68.40
2023-08-12T23:35:05.435Z,68.80
2023-08-12T23:37:33.830Z,69.50
2023-08-12T23:40:03.157Z,69.70
2023-08-12T23:42:31.508Z,70.00
2023-08-12T23:45:01.735Z,69.90
2023-08-12T23:47:30.276Z,70.80
2023-08-12T23:49:58.650Z,71.20
2023-08-12T23:52:26.960Z,71.60
2023-08-12T23:54:55.442Z,71.60
2023-08-12T23:57:23.781Z,70.70
2023-08-12T23:59:52.124Z,69.50
